createdAt,value
2018-08-24T00:00:03.585Z,27.15
2018-08-24T00:01:07.005Z,26.42
2018-08-24T00:02:10.636Z,22.45
2018-08-24T00:03:14.124Z,21.80
2018-08-24T00:04:17.630Z,24.75
2018-08-24T00:05:21.032Z,22.05
2018-08-24T00:06:24.347Z,29.45
2018-08-24T00:07:27.894Z,24.43
2018-08-24T00:08:31.652Z,20.95
2018-08-24T00:09:35.018Z,21.75
2018-08-24T00:10:38.885Z,25.00
2018-08-24T00:11:42.423Z,23.80
2018-08-24T00:12:45.915Z,22.27
2018-08-24T00:13:49.396Z,22.45
2018-08-24T00:14:52.836Z,21.50
2018-08-24T00:15:56.336Z,27.90
2018-08-24T00:16:59.977Z,22.70
2018-08-24T00:18:03.582Z,25.25
2018-08-24T00:19:11.139Z,24.02
2018-08-24T00:20:14.659Z,22.58
2018-08-24T00:21:18.019Z,22.42
2018-08-24T00:22:21.543Z,24.80
2018-08-24T00:23:25.206Z,31.02
2018-08-24T00:24:28.896Z,22.35
2018-08-24T00:25:32.700Z,25.17
2018-08-24T00:26:36.388Z,24.43
2018-08-24T00:27:39.760Z,24.43
2018-08-24T00:28:43.319Z,25.00
2018-08-24T00:29:46.818Z,24.30
2018-08-24T00:30:50.387Z,30.75
2018-08-24T00:31:53.763Z,22.70
2018-08-24T00:32:57.158Z,22.95
2018-08-24T00:34:00.754Z,25.43
2018-08-24T00:35:04.655Z,22.37
2018-08-24T00:36:08.098Z,27.15
2018-08-24T00:37:11.717Z,25.17
2018-08-24T00:38:15.309Z,25.32
2018-08-24T00:39:18.872Z,25.75
2018-08-24T00:40:22.762Z,26.97
2018-08-24T00:41:26.384Z,27.67
2018-08-24T00:42:29.779Z,25.40
2018-08-24T00:43:33.366Z,29.05
2018-08-24T00:44:36.931Z,24.43
2018-08-24T00:45:40.312Z,24.25
2018-08-24T00:46:44.006Z,26.65
2018-08-24T00:47:47.426Z,25.85
2018-08-24T00:48:50.872Z,26.35
2018-08-24T00:49:54.349Z,26.25
2018-08-24T00:50:57.955Z,28.65
2018-08-24T00:52:01.552Z,28.65
2018-08-24T00:53:05.069Z,29.60
2018-08-24T00:54:08.655Z,30.80
2018-08-24T00:55:12.297Z,26.93
2018-08-24T00:56:15.803Z,27.00
2018-08-24T00:57:19.463Z,27.93
2018-08-24T00:58:22.955Z,31.12
2018-08-24T00:59:26.591Z,30.00
2018-08-24T01:00:35.733Z,30.70
2018-08-24T01:01:39.098Z,27.32
2018-08-24T01:02:42.471Z,27.73
2018-08-24T01:03:45.962Z,29.72
2018-08-24T01:04:49.462Z,27.67
2018-08-24T01:05:53.181Z,27.22
2018-08-24T01:06:56.591Z,26.02
2018-08-24T01:08:05.694Z,29.87
2018-08-24T01:09:11.111Z,28.75
2018-08-24T01:10:20.143Z,32.35
2018-08-24T01:11:28.079Z,29.25
2018-08-24T01:12:31.514Z,29.12
2018-08-24T01:13:34.813Z,26.77
2018-08-24T01:14:40.305Z,28.92
2018-08-24T01:15:51.431Z,26.80
2018-08-24T01:17:00.828Z,29.12
2018-08-24T01:18:09.948Z,28.00
2018-08-24T01:19:13.269Z,30.15
2018-08-24T01:20:16.722Z,28.92
2018-08-24T01:21:20.188Z,30.62
2018-08-24T01:22:23.665Z,30.55
2018-08-24T01:23:28.569Z,28.25
2018-08-24T01:24:32.133Z,24.63
2018-08-24T01:25:35.823Z,29.35
2018-08-24T01:26:39.659Z,25.55
2018-08-24T01:27:43.205Z,31.25
2018-08-24T01:28:46.907Z,28.47
2018-08-24T01:29:50.266Z,33.78
2018-08-24T01:30:53.960Z,29.82
2018-08-24T01:31:57.550Z,29.63
2018-08-24T01:33:00.999Z,26.65
2018-08-24T01:34:04.467Z,28.45
2018-08-24T01:35:07.901Z,26.25
2018-08-24T01:36:11.387Z,34.08
2018-08-24T01:37:14.927Z,26.37
2018-08-24T01:38:18.564Z,25.45
2018-08-24T01:39:21.949Z,26.40
2018-08-24T01:40:25.517Z,33.73
2018-08-24T01:41:28.971Z,25.02
2018-08-24T01:42:32.615Z,31.37
2018-08-24T01:43:36.117Z,27.73
2018-08-24T01:44:39.994Z,28.32
2018-08-24T01:45:43.734Z,27.48
2018-08-24T01:46:47.261Z,27.00
2018-08-24T01:47:50.957Z,27.25
2018-08-24T01:48:54.381Z,31.77
2018-08-24T01:49:57.783Z,22.65
2018-08-24T01:51:01.237Z,26.62
2018-08-24T01:52:04.697Z,26.05
2018-08-24T01:53:08.431Z,27.17
2018-08-24T01:54:12.025Z,26.97
2018-08-24T01:55:15.428Z,30.90
2018-08-24T01:56:19.079Z,24.12
2018-08-24T01:57:22.563Z,29.35
2018-08-24T01:58:25.966Z,29.95
2018-08-24T01:59:29.343Z,32.40
2018-08-24T02:00:33.015Z,25.80
2018-08-24T02:01:36.775Z,25.02
2018-08-24T02:02:40.890Z,26.48
2018-08-24T02:03:44.379Z,27.35
2018-08-24T02:04:47.716Z,28.10
2018-08-24T02:05:53.837Z,25.05
2018-08-24T02:06:57.459Z,27.05
2018-08-24T02:08:00.979Z,23.40
2018-08-24T02:09:08.872Z,26.30
2018-08-24T02:10:17.861Z,28.85
2018-08-24T02:11:26.938Z,26.42
2018-08-24T02:12:36.045Z,27.15
2018-08-24T02:13:46.473Z,25.40
2018-08-24T02:14:50.092Z,25.43
2018-08-24T02:15:53.709Z,28.12
2018-08-24T02:16:57.173Z,34.27
2018-08-24T02:18:06.020Z,29.45
2018-08-24T02:19:11.124Z,28.45
2018-08-24T02:20:19.955Z,23.12
2018-08-24T02:21:28.825Z,25.27
2018-08-24T02:22:32.489Z,27.87
2018-08-24T02:23:36.059Z,26.50
2018-08-24T02:24:39.743Z,26.80
2018-08-24T02:25:44.011Z,23.80
2018-08-24T02:26:47.390Z,21.75
2018-08-24T02:27:51.289Z,17.35
2018-08-24T02:28:54.619Z,11.70
2018-08-24T02:29:58.087Z,10.82
2018-08-24T02:31:01.867Z,10.68
2018-08-24T02:32:06.539Z,10.90
2018-08-24T02:33:10.072Z,9.50
2018-08-24T02:34:13.883Z,8.40
2018-08-24T02:35:19.913Z,9.33
2018-08-24T02:36:23.628Z,7.75
2018-08-24T02:37:28.843Z,6.33
2018-08-24T02:38:32.440Z,7.45
2018-08-24T02:39:36.087Z,6.58
2018-08-24T02:40:39.560Z,6.92
2018-08-24T02:41:43.406Z,7.95
2018-08-24T02:42:47.738Z,8.20
2018-08-24T02:43:51.362Z,8.40
2018-08-24T02:44:54.783Z,9.03
2018-08-24T02:45:58.140Z,8.40
2018-08-24T02:47:01.844Z,12.28
2018-08-24T02:48:05.583Z,8.53
2018-08-24T02:49:09.116Z,8.37
2018-08-24T02:50:12.492Z,7.63
2018-08-24T02:51:15.829Z,8.65
2018-08-24T02:52:19.225Z,7.62
2018-08-24T02:53:22.956Z,7.40
2018-08-24T02:54:26.379Z,7.73
2018-08-24T02:55:29.815Z,10.57
2018-08-24T02:56:36.107Z,6.77
2018-08-24T02:57:39.546Z,10.77
2018-08-24T02:58:43.066Z,7.83
2018-08-24T02:59:46.657Z,8.33
2018-08-24T03:00:50.077Z,9.47
2018-08-24T03:01:53.556Z,8.20
2018-08-24T03:02:57.004Z,10.55
2018-08-24T03:04:00.822Z,9.53
2018-08-24T03:05:04.412Z,7.50
2018-08-24T03:06:07.737Z,6.55
2018-08-24T03:07:11.207Z,6.27
2018-08-24T03:08:14.749Z,5.70
2018-08-24T03:09:18.569Z,4.47
2018-08-24T03:10:22.287Z,5.83
2018-08-24T03:11:25.845Z,3.60
2018-08-24T03:12:29.464Z,3.70
2018-08-24T03:13:32.957Z,5.17
2018-08-24T03:14:36.267Z,3.90
2018-08-24T03:15:39.905Z,4.73
2018-08-24T03:16:47.833Z,5.00
2018-08-24T03:17:53.562Z,3.17
2018-08-24T03:18:57.098Z,3.90
2018-08-24T03:20:00.624Z,5.23
2018-08-24T03:21:04.035Z,3.90
2018-08-24T03:22:07.422Z,4.93
2018-08-24T03:23:10.949Z,5.73
2018-08-24T03:24:14.580Z,5.90
2018-08-24T03:25:17.967Z,4.40
2018-08-24T03:26:21.530Z,3.67
2018-08-24T03:27:25.054Z,4.97
2018-08-24T03:28:28.686Z,5.23
2018-08-24T03:29:32.667Z,6.93
2018-08-24T03:30:36.048Z,3.83
2018-08-24T03:31:39.686Z,5.13
2018-08-24T03:32:43.435Z,6.00
2018-08-24T03:33:47.158Z,5.47
2018-08-24T03:34:50.836Z,5.57
2018-08-24T03:35:54.246Z,6.30
2018-08-24T03:36:57.875Z,4.47
2018-08-24T03:38:01.576Z,4.50
2018-08-24T03:39:08.581Z,5.43
2018-08-24T03:40:12.108Z,4.17
2018-08-24T03:41:16.000Z,4.30
2018-08-24T03:42:19.435Z,4.90
2018-08-24T03:43:22.904Z,6.00
2018-08-24T03:44:26.423Z,6.43
2018-08-24T03:45:30.209Z,5.90
2018-08-24T03:46:33.811Z,6.20
2018-08-24T03:47:37.276Z,6.13
2018-08-24T03:48:40.839Z,6.30
2018-08-24T03:49:44.349Z,4.93
2018-08-24T03:50:48.020Z,5.23
2018-08-24T03:51:51.752Z,5.13
2018-08-24T03:52:55.259Z,7.50
2018-08-24T03:53:58.577Z,6.90
2018-08-24T03:55:01.946Z,7.37
2018-08-24T03:56:05.659Z,7.30
2018-08-24T03:57:09.100Z,6.80
2018-08-24T03:58:12.774Z,7.10
2018-08-24T03:59:16.159Z,6.43
2018-08-24T04:00:19.710Z,6.80
2018-08-24T04:01:23.330Z,7.63
2018-08-24T04:02:26.987Z,7.30
2018-08-24T04:03:30.581Z,7.17
2018-08-24T04:04:34.059Z,6.53
2018-08-24T04:05:37.527Z,7.93
2018-08-24T04:06:41.388Z,6.73
2018-08-24T04:07:45.015Z,5.77
2018-08-24T04:08:48.471Z,6.23
2018-08-24T04:09:51.923Z,5.53
2018-08-24T04:10:55.513Z,5.10
2018-08-24T04:11:59.240Z,5.93
2018-08-24T04:13:03.182Z,8.33
2018-08-24T04:14:06.568Z,5.90
2018-08-24T04:15:09.951Z,7.10
2018-08-24T04:16:13.539Z,6.23
2018-08-24T04:17:22.848Z,4.73
2018-08-24T04:18:26.484Z,5.73
2018-08-24T04:19:30.025Z,7.37
2018-08-24T04:20:33.264Z,7.17
2018-08-24T04:21:36.601Z,5.73
2018-08-24T04:22:41.020Z,5.60
2018-08-24T04:23:44.787Z,10.47
2018-08-24T04:24:48.370Z,8.00
2018-08-24T04:25:51.975Z,5.23
2018-08-24T04:26:56.852Z,7.90
2018-08-24T04:28:00.337Z,5.70
2018-08-24T04:29:04.064Z,5.50
2018-08-24T04:30:08.343Z,6.90
2018-08-24T04:31:11.998Z,5.53
2018-08-24T04:32:15.675Z,9.77
2018-08-24T04:33:19.199Z,7.50
2018-08-24T04:34:22.687Z,6.93
2018-08-24T04:35:26.319Z,7.87
2018-08-24T04:36:30.692Z,6.83
2018-08-24T04:37:34.533Z,8.20
2018-08-24T04:38:38.122Z,9.30
2018-08-24T04:39:41.736Z,10.67
2018-08-24T04:40:45.592Z,7.93
2018-08-24T04:41:49.171Z,6.43
2018-08-24T04:42:52.762Z,9.67
2018-08-24T04:43:56.653Z,7.93
2018-08-24T04:45:00.200Z,7.33
2018-08-24T04:46:03.734Z,6.77
2018-08-24T04:47:07.170Z,10.13
2018-08-24T04:48:10.854Z,7.47
2018-08-24T04:49:14.359Z,7.10
2018-08-24T04:50:17.949Z,6.10
2018-08-24T04:51:21.562Z,5.23
2018-08-24T04:52:25.098Z,8.73
2018-08-24T04:53:28.763Z,7.60
2018-08-24T04:54:32.451Z,11.17
2018-08-24T04:55:36.130Z,9.37
2018-08-24T04:56:40.689Z,8.13
2018-08-24T04:57:44.146Z,7.43
2018-08-24T04:58:47.950Z,7.17
2018-08-24T04:59:51.943Z,9.10
2018-08-24T05:00:55.526Z,6.63
2018-08-24T05:01:58.957Z,11.37
2018-08-24T05:03:03.289Z,6.90
2018-08-24T05:04:07.592Z,8.10
2018-08-24T05:05:11.148Z,5.80
2018-08-24T05:06:14.717Z,10.37
2018-08-24T05:07:18.334Z,12.53
2018-08-24T05:08:21.985Z,10.03
2018-08-24T05:09:25.751Z,8.37
2018-08-24T05:10:29.151Z,7.10
2018-08-24T05:11:32.614Z,8.00
2018-08-24T05:12:36.232Z,7.37
2018-08-24T05:13:39.865Z,8.00
2018-08-24T05:14:43.670Z,7.30
2018-08-24T05:15:47.164Z,4.80
2018-08-24T05:16:50.730Z,13.27
2018-08-24T05:17:54.228Z,7.27
2018-08-24T05:18:57.827Z,9.10
2018-08-24T05:20:01.614Z,9.67
2018-08-24T05:21:05.207Z,7.53
2018-08-24T05:22:08.739Z,11.17
2018-08-24T05:23:12.235Z,6.20
2018-08-24T05:24:15.631Z,9.47
2018-08-24T05:25:19.152Z,10.23
2018-08-24T05:26:22.720Z,8.10
2018-08-24T05:27:26.087Z,8.33
2018-08-24T05:28:29.539Z,6.90
2018-08-24T05:29:33.031Z,7.47
2018-08-24T05:30:36.375Z,8.60
2018-08-24T05:31:39.936Z,9.77
2018-08-24T05:32:43.598Z,7.70
2018-08-24T05:33:47.012Z,8.20
2018-08-24T05:34:50.657Z,10.43
2018-08-24T05:35:54.598Z,7.67
2018-08-24T05:36:58.321Z,10.93
2018-08-24T05:38:01.655Z,7.73
2018-08-24T05:39:07.729Z,9.83
2018-08-24T05:40:11.062Z,4.33
2018-08-24T05:41:14.506Z,8.00
2018-08-24T05:42:18.044Z,7.90
2018-08-24T05:43:21.713Z,10.63
2018-08-24T05:44:25.423Z,7.60
2018-08-24T05:45:28.950Z,7.73
2018-08-24T05:46:32.770Z,9.30
2018-08-24T05:47:36.761Z,8.90
2018-08-24T05:48:40.428Z,7.13
2018-08-24T05:49:44.316Z,10.13
2018-08-24T05:50:47.847Z,10.13
2018-08-24T05:51:51.302Z,6.30
2018-08-24T05:52:54.902Z,5.97
2018-08-24T05:53:58.338Z,7.07
2018-08-24T05:55:01.905Z,7.33
2018-08-24T05:56:05.265Z,9.70
2018-08-24T05:57:08.957Z,10.40
2018-08-24T05:58:12.464Z,14.00
2018-08-24T05:59:16.011Z,6.87
2018-08-24T06:00:24.154Z,8.53
2018-08-24T06:01:27.916Z,8.93
2018-08-24T06:02:31.599Z,6.57
2018-08-24T06:03:35.165Z,8.47
2018-08-24T06:04:38.607Z,8.47
2018-08-24T06:05:47.740Z,6.63
2018-08-24T06:06:51.144Z,8.97
2018-08-24T06:07:54.564Z,8.07
2018-08-24T06:09:03.684Z,6.10
2018-08-24T06:10:07.417Z,11.43
2018-08-24T06:11:10.844Z,9.57
2018-08-24T06:12:14.325Z,8.17
2018-08-24T06:13:18.805Z,8.53
2018-08-24T06:14:22.255Z,8.23
2018-08-24T06:15:25.795Z,9.70
2018-08-24T06:16:29.294Z,14.63
2018-08-24T06:17:39.517Z,8.93
2018-08-24T06:18:42.908Z,9.23
2018-08-24T06:19:46.277Z,9.93
2018-08-24T06:20:50.185Z,9.77
2018-08-24T06:21:54.058Z,8.80
2018-08-24T06:22:57.957Z,12.40
2018-08-24T06:24:01.312Z,9.63
2018-08-24T06:25:04.834Z,9.60
2018-08-24T06:26:08.431Z,8.40
2018-08-24T06:27:11.871Z,12.73
2018-08-24T06:28:15.445Z,9.20
2018-08-24T06:29:18.851Z,12.20
2018-08-24T06:30:22.427Z,6.33
2018-08-24T06:31:26.204Z,8.73
2018-08-24T06:32:29.905Z,8.60
2018-08-24T06:33:33.451Z,10.90
2018-08-24T06:34:36.953Z,11.70
2018-08-24T06:35:40.333Z,9.30
2018-08-24T06:36:44.045Z,10.43
2018-08-24T06:37:47.491Z,7.37
2018-08-24T06:38:51.395Z,11.33
2018-08-24T06:39:54.925Z,7.37
2018-08-24T06:40:59.094Z,8.40
2018-08-24T06:42:02.764Z,11.27
2018-08-24T06:43:06.208Z,9.73
2018-08-24T06:44:09.887Z,10.87
2018-08-24T06:45:13.367Z,11.13
2018-08-24T06:46:16.933Z,12.63
2018-08-24T06:47:20.679Z,8.87
2018-08-24T06:49:35.581Z,8.80
2018-08-24T06:50:39.208Z,15.03
2018-08-24T06:51:42.688Z,10.77
2018-08-24T06:52:46.283Z,9.57
2018-08-24T06:53:49.876Z,11.73
2018-08-24T06:54:53.392Z,9.43
2018-08-24T06:55:57.278Z,10.67
2018-08-24T06:57:00.781Z,13.40
2018-08-24T06:58:04.457Z,14.47
2018-08-24T06:59:07.840Z,11.70
2018-08-24T07:00:11.452Z,11.67
2018-08-24T07:01:15.065Z,9.10
2018-08-24T07:02:18.641Z,9.60
2018-08-24T07:03:22.434Z,8.63
2018-08-24T07:04:26.468Z,11.33
2018-08-24T07:05:31.425Z,9.23
2018-08-24T07:06:34.952Z,10.07
2018-08-24T07:07:38.419Z,12.03
2018-08-24T07:08:41.963Z,9.30
2018-08-24T07:09:45.969Z,10.37
2018-08-24T07:10:49.747Z,9.00
2018-08-24T07:11:53.352Z,11.17
2018-08-24T07:12:56.904Z,10.73
2018-08-24T07:14:00.295Z,11.13
2018-08-24T07:15:03.675Z,10.17
2018-08-24T07:16:07.512Z,10.27
2018-08-24T07:17:11.002Z,11.63
2018-08-24T07:18:14.385Z,9.50
2018-08-24T07:19:17.983Z,11.70
2018-08-24T07:20:21.645Z,10.90
2018-08-24T07:21:25.102Z,10.80
2018-08-24T07:22:28.856Z,11.00
2018-08-24T07:23:32.450Z,12.23
2018-08-24T07:24:35.932Z,11.00
2018-08-24T07:25:39.678Z,10.80
2018-08-24T07:26:43.289Z,9.80
2018-08-24T07:27:47.291Z,13.43
2018-08-24T07:28:50.770Z,11.60
2018-08-24T07:29:54.265Z,13.03
2018-08-24T07:30:57.950Z,12.07
2018-08-24T07:32:01.583Z,11.57
2018-08-24T07:33:05.374Z,8.40
2018-08-24T07:34:08.886Z,14.40
2018-08-24T07:35:13.627Z,9.33
2018-08-24T07:36:17.748Z,8.90
2018-08-24T07:37:21.377Z,10.70
2018-08-24T07:38:24.940Z,8.60
2018-08-24T07:39:28.417Z,9.27
2018-08-24T07:40:32.116Z,10.03
2018-08-24T07:41:35.931Z,10.33
2018-08-24T07:42:39.910Z,15.50
2018-08-24T07:43:43.354Z,9.53
2018-08-24T07:44:52.041Z,11.43
2018-08-24T07:45:55.595Z,12.20
2018-08-24T07:46:59.238Z,12.47
2018-08-24T07:48:03.295Z,12.83
2018-08-24T07:49:07.643Z,12.50
2018-08-24T07:50:11.186Z,12.07
2018-08-24T07:51:14.800Z,10.23
2018-08-24T07:52:18.406Z,12.47
2018-08-24T07:53:21.849Z,12.63
2018-08-24T07:54:25.328Z,9.77
2018-08-24T07:55:29.155Z,11.13
2018-08-24T07:56:32.786Z,10.20
2018-08-24T07:57:36.468Z,12.80
2018-08-24T07:58:39.975Z,12.80
2018-08-24T07:59:43.837Z,11.50
2018-08-24T08:00:47.781Z,17.27
2018-08-24T08:01:51.527Z,8.47
2018-08-24T08:02:54.966Z,14.13
2018-08-24T08:04:00.152Z,11.50
2018-08-24T08:05:03.672Z,12.53
2018-08-24T08:06:08.235Z,11.47
2018-08-24T08:07:12.845Z,12.70
2018-08-24T08:08:17.493Z,12.97
2018-08-24T08:09:22.039Z,9.07
2018-08-24T08:10:29.943Z,15.90
2018-08-24T08:11:38.528Z,11.47
2018-08-24T08:12:42.102Z,11.50
2018-08-24T08:13:45.671Z,9.47
2018-08-24T08:14:54.718Z,10.63
2018-08-24T08:15:58.252Z,10.17
2018-08-24T08:17:02.598Z,16.63
2018-08-24T08:18:06.130Z,14.40
2018-08-24T08:19:10.064Z,11.67
2018-08-24T08:20:13.710Z,15.37
2018-08-24T08:21:17.060Z,18.80
2018-08-24T08:22:20.464Z,11.10
2018-08-24T08:23:23.798Z,10.63
2018-08-24T08:24:27.490Z,11.07
2018-08-24T08:25:31.191Z,9.73
2018-08-24T08:26:34.684Z,13.87
2018-08-24T08:27:38.058Z,10.88
2018-08-24T08:28:41.595Z,10.65
2018-08-24T08:29:50.831Z,11.87
2018-08-24T08:30:54.518Z,13.27
2018-08-24T08:31:58.238Z,14.03
2018-08-24T08:33:01.750Z,13.60
2018-08-24T08:34:05.271Z,15.63
2018-08-24T08:35:09.277Z,20.30
2018-08-24T08:36:12.814Z,12.33
2018-08-24T08:37:16.548Z,13.62
2018-08-24T08:38:19.948Z,11.53
2018-08-24T08:39:23.376Z,9.70
2018-08-24T08:40:26.843Z,11.67
2018-08-24T08:41:30.399Z,10.72
2018-08-24T08:42:33.991Z,17.73
2018-08-24T08:43:37.628Z,16.00
2018-08-24T08:44:40.998Z,14.60
2018-08-24T08:45:44.468Z,11.25
2018-08-24T08:46:47.962Z,15.10
2018-08-24T08:47:51.639Z,12.23
2018-08-24T08:48:55.360Z,10.20
2018-08-24T08:49:58.628Z,11.85
2018-08-24T08:51:02.012Z,16.87
2018-08-24T08:52:05.386Z,13.57
2018-08-24T08:53:08.969Z,12.63
2018-08-24T08:54:12.691Z,12.68
2018-08-24T08:55:16.055Z,10.78
2018-08-24T08:56:19.526Z,12.40
2018-08-24T08:57:22.889Z,11.97
2018-08-24T08:58:26.269Z,16.10
2018-08-24T08:59:29.816Z,13.20
2018-08-24T09:00:33.266Z,13.05
2018-08-24T09:01:36.724Z,14.85
2018-08-24T09:02:40.036Z,12.80
2018-08-24T09:03:43.763Z,13.62
2018-08-24T09:04:47.118Z,15.20
2018-08-24T09:05:50.732Z,10.48
2018-08-24T09:06:54.176Z,11.97
2018-08-24T09:07:57.668Z,15.68
2018-08-24T09:09:01.154Z,13.68
2018-08-24T09:10:04.787Z,11.18
2018-08-24T09:11:08.441Z,14.33
2018-08-24T09:12:11.959Z,13.85
2018-08-24T09:13:15.637Z,15.37
2018-08-24T09:14:19.270Z,11.87
2018-08-24T09:15:22.727Z,12.28
2018-08-24T09:16:26.156Z,11.27
2018-08-24T09:17:35.467Z,13.80
2018-08-24T09:18:44.785Z,11.17
2018-08-24T09:19:54.094Z,11.03
2018-08-24T09:21:03.433Z,12.13
2018-08-24T09:22:12.605Z,14.50
2018-08-24T09:23:21.782Z,9.43
2018-08-24T09:24:30.830Z,11.03
2018-08-24T09:25:40.009Z,11.80
2018-08-24T09:26:48.932Z,10.03
2018-08-24T09:27:57.915Z,8.90
2018-08-24T09:29:06.406Z,12.10
2018-08-24T09:30:09.784Z,11.60
2018-08-24T09:31:31.470Z,11.83
2018-08-24T09:32:34.932Z,12.13
2018-08-24T09:33:38.299Z,13.03
2018-08-24T09:34:41.760Z,12.37
2018-08-24T09:35:45.640Z,11.83
2018-08-24T09:36:49.172Z,9.87
2018-08-24T09:37:52.670Z,8.73
2018-08-24T09:38:56.360Z,12.37
2018-08-24T09:39:59.708Z,14.00
2018-08-24T09:41:03.430Z,9.73
2018-08-24T09:42:06.856Z,12.67
2018-08-24T09:43:15.966Z,13.70
2018-08-24T09:44:19.508Z,17.10
2018-08-24T09:45:23.090Z,11.63
2018-08-24T09:46:32.087Z,11.87
2018-08-24T09:47:41.000Z,13.17
2018-08-24T09:48:49.966Z,12.67
2018-08-24T09:49:53.683Z,13.47
2018-08-24T09:51:02.903Z,12.60
2018-08-24T09:52:11.979Z,12.63
2018-08-24T09:53:20.852Z,14.63
2018-08-24T09:54:24.135Z,13.93
2018-08-24T09:55:32.324Z,12.10
2018-08-24T09:56:36.936Z,12.40
2018-08-24T09:57:40.374Z,10.73
2018-08-24T09:58:44.006Z,13.63
2018-08-24T09:59:47.520Z,11.93
2018-08-24T10:00:56.450Z,9.90
2018-08-24T10:02:05.601Z,11.60
2018-08-24T10:05:21.245Z,11.57
2018-08-24T10:06:30.400Z,10.63
2018-08-24T10:07:38.424Z,10.53
2018-08-24T10:08:49.002Z,12.37
2018-08-24T10:09:52.733Z,9.87
2018-08-24T10:10:56.301Z,12.50
2018-08-24T10:11:59.727Z,12.93
2018-08-24T10:13:03.418Z,9.43
2018-08-24T10:14:07.523Z,9.63
2018-08-24T10:15:11.351Z,11.70
2018-08-24T10:16:15.721Z,10.73
2018-08-24T10:17:23.759Z,10.60
2018-08-24T10:18:27.210Z,9.77
2018-08-24T10:19:30.585Z,9.83
2018-08-24T10:20:34.023Z,9.10
2018-08-24T10:21:37.581Z,9.83
2018-08-24T10:22:40.987Z,8.63
2018-08-24T10:23:44.579Z,9.23
2018-08-24T10:24:48.199Z,9.57
2018-08-24T10:25:51.814Z,10.37
2018-08-24T10:26:55.491Z,12.27
2018-08-24T10:27:59.285Z,8.60
2018-08-24T10:29:03.824Z,9.70
2018-08-24T10:30:07.467Z,10.00
2018-08-24T10:31:11.156Z,11.93
2018-08-24T10:32:14.607Z,9.55
2018-08-24T10:33:18.166Z,10.63
2018-08-24T10:34:21.608Z,9.88
2018-08-24T10:35:24.928Z,10.87
2018-08-24T10:36:28.356Z,10.10
2018-08-24T10:37:32.040Z,9.13
2018-08-24T10:38:35.381Z,8.27
2018-08-24T10:39:39.058Z,7.87
2018-08-24T10:40:42.488Z,9.17
2018-08-24T10:41:46.014Z,8.67
2018-08-24T10:42:49.375Z,9.27
2018-08-24T10:43:52.863Z,10.97
2018-08-24T10:44:56.323Z,5.77
2018-08-24T10:45:59.923Z,7.90
2018-08-24T10:47:04.024Z,8.70
2018-08-24T10:48:07.362Z,8.07
2018-08-24T10:49:10.950Z,6.37
2018-08-24T10:50:14.407Z,8.97
2018-08-24T10:51:17.856Z,9.97
2018-08-24T10:52:21.356Z,7.93
2018-08-24T10:53:24.802Z,8.47
2018-08-24T10:54:28.111Z,11.13
2018-08-24T10:55:31.727Z,10.30
2018-08-24T10:56:35.294Z,9.48
2018-08-24T10:57:38.683Z,9.17
2018-08-24T10:58:42.148Z,9.60
2018-08-24T10:59:45.451Z,9.27
2018-08-24T11:00:48.784Z,5.30
2018-08-24T11:01:52.087Z,7.40
2018-08-24T11:02:55.555Z,6.37
2018-08-24T11:03:58.976Z,7.83
2018-08-24T11:05:02.676Z,5.40
2018-08-24T11:06:06.013Z,6.43
2018-08-24T11:07:09.572Z,8.07
2018-08-24T11:08:12.929Z,5.73
2018-08-24T11:09:16.646Z,5.67
2018-08-24T11:10:20.191Z,6.87
2018-08-24T11:11:23.961Z,7.80
2018-08-24T11:12:30.316Z,6.13
2018-08-24T11:13:33.731Z,6.78
2018-08-24T11:14:37.251Z,4.25
2018-08-24T11:15:40.747Z,8.20
2018-08-24T11:16:44.168Z,11.20
2018-08-24T11:17:53.463Z,8.25
2018-08-24T11:18:57.030Z,6.00
2018-08-24T11:20:00.619Z,6.58
2018-08-24T11:21:04.049Z,8.28
2018-08-24T11:22:07.417Z,5.12
2018-08-24T11:23:11.089Z,6.58
2018-08-24T11:24:14.519Z,5.57
2018-08-24T11:25:18.146Z,6.35
2018-08-24T11:26:21.586Z,5.30
2018-08-24T11:27:25.013Z,8.65
2018-08-24T11:28:28.454Z,6.37
2018-08-24T11:29:31.916Z,7.75
2018-08-24T11:30:35.499Z,7.28
2018-08-24T11:31:39.244Z,5.20
2018-08-24T11:32:42.768Z,4.03
2018-08-24T11:33:46.215Z,5.22
2018-08-24T11:34:49.950Z,8.88
2018-08-24T11:35:53.447Z,6.75
2018-08-24T11:36:56.954Z,10.00
2018-08-24T11:38:00.720Z,6.67
2018-08-24T11:39:06.508Z,5.47
2018-08-24T11:40:10.072Z,7.60
2018-08-24T11:41:13.899Z,3.40
2018-08-24T11:42:17.250Z,5.47
2018-08-24T11:43:20.790Z,10.43
2018-08-24T11:44:24.294Z,7.15
2018-08-24T11:45:27.763Z,5.65
2018-08-24T11:46:31.345Z,8.40
2018-08-24T11:47:34.901Z,7.92
2018-08-24T11:48:38.380Z,5.90
2018-08-24T11:49:41.709Z,5.58
2018-08-24T11:50:45.148Z,8.75
2018-08-24T11:51:55.196Z,4.78
2018-08-24T11:52:58.648Z,10.03
2018-08-24T11:54:02.273Z,8.68
2018-08-24T11:55:06.060Z,9.68
2018-08-24T11:56:09.627Z,6.05
2018-08-24T11:57:13.760Z,9.95
2018-08-24T11:58:17.911Z,8.05
2018-08-24T11:59:21.663Z,6.37
2018-08-24T12:00:34.924Z,7.03
2018-08-24T12:01:38.342Z,7.45
2018-08-24T12:02:41.675Z,8.58
2018-08-24T12:03:45.365Z,5.72
2018-08-24T12:04:49.465Z,6.17
2018-08-24T12:05:53.398Z,8.78
2018-08-24T12:06:57.010Z,5.75
2018-08-24T12:08:00.487Z,5.10
2018-08-24T12:09:05.824Z,6.90
2018-08-24T12:10:09.725Z,5.47
2018-08-24T12:11:13.292Z,7.58
2018-08-24T12:12:16.969Z,7.60
2018-08-24T12:13:20.559Z,7.25
2018-08-24T12:14:24.266Z,6.85
2018-08-24T12:15:27.719Z,7.12
2018-08-24T12:16:31.142Z,6.90
2018-08-24T12:17:36.576Z,6.62
2018-08-24T12:18:40.304Z,8.03
2018-08-24T12:19:43.720Z,8.30
2018-08-24T12:20:47.133Z,7.67
2018-08-24T12:21:50.827Z,8.95
2018-08-24T12:22:54.496Z,9.38
2018-08-24T12:23:58.335Z,9.60
2018-08-24T12:25:01.808Z,9.23
2018-08-24T12:26:05.819Z,6.83
2018-08-24T12:27:10.008Z,9.48
2018-08-24T12:28:13.884Z,4.50
2018-08-24T12:29:18.097Z,8.05
2018-08-24T12:30:21.819Z,7.90
2018-08-24T12:31:25.461Z,9.50
2018-08-24T12:32:29.062Z,10.00
2018-08-24T12:33:32.787Z,7.85
2018-08-24T12:34:36.480Z,7.67
2018-08-24T12:35:39.859Z,9.28
2018-08-24T12:36:43.372Z,5.97
2018-08-24T12:37:47.740Z,7.30
2018-08-24T12:38:51.437Z,7.78
2018-08-24T12:39:55.271Z,7.12
2018-08-24T12:40:58.760Z,7.33
2018-08-24T12:42:02.868Z,6.17
2018-08-24T12:43:06.583Z,6.50
2018-08-24T12:44:10.203Z,5.35
2018-08-24T12:45:14.822Z,6.83
2018-08-24T12:46:20.019Z,6.10
2018-08-24T12:47:24.547Z,4.92
2018-08-24T12:48:27.990Z,8.08
2018-08-24T12:49:31.741Z,7.90
2018-08-24T12:50:35.440Z,9.60
2018-08-24T12:51:38.997Z,6.70
2018-08-24T12:52:42.591Z,6.65
2018-08-24T12:53:46.431Z,6.20
2018-08-24T12:54:50.389Z,7.33
2018-08-24T12:55:55.793Z,5.95
2018-08-24T12:56:59.407Z,6.65
2018-08-24T12:58:02.873Z,9.33
2018-08-24T12:59:06.690Z,9.75
2018-08-24T13:00:10.818Z,6.75
2018-08-24T13:01:14.347Z,5.30
2018-08-24T13:02:18.853Z,5.08
2018-08-24T13:03:22.730Z,4.67
2018-08-24T13:04:26.422Z,5.00
2018-08-24T13:05:29.997Z,5.08
2018-08-24T13:06:33.435Z,7.20
2018-08-24T13:07:36.811Z,4.67
2018-08-24T13:08:40.730Z,8.35
2018-08-24T13:09:44.383Z,5.53
2018-08-24T13:10:47.936Z,6.42
2018-08-24T13:11:51.462Z,7.17
2018-08-24T13:12:54.845Z,8.25
2018-08-24T13:13:58.494Z,11.22
2018-08-24T13:15:02.001Z,6.67
2018-08-24T13:16:05.968Z,9.95
2018-08-24T13:17:09.907Z,5.22
2018-08-24T13:18:13.466Z,8.60
2018-08-24T13:19:17.238Z,6.72
2018-08-24T13:20:20.604Z,7.37
2018-08-24T13:21:23.933Z,4.33
2018-08-24T13:22:27.626Z,5.75
2018-08-24T13:23:31.123Z,5.40
2018-08-24T13:24:34.757Z,7.03
2018-08-24T13:25:38.165Z,10.00
2018-08-24T13:26:41.619Z,10.10
2018-08-24T13:27:44.970Z,4.83
2018-08-24T13:28:48.478Z,7.37
2018-08-24T13:29:52.126Z,6.57
2018-08-24T13:30:55.656Z,6.13
2018-08-24T13:31:59.083Z,5.23
2018-08-24T13:33:02.516Z,6.05
2018-08-24T13:34:06.156Z,7.07
2018-08-24T13:35:09.684Z,5.67
2018-08-24T13:36:13.238Z,5.17
2018-08-24T13:37:16.597Z,3.83
2018-08-24T13:38:20.195Z,9.17
2018-08-24T13:39:23.981Z,3.77
2018-08-24T13:40:27.447Z,3.43
2018-08-24T13:41:31.000Z,3.43
2018-08-24T13:42:34.299Z,4.03
2018-08-24T13:43:37.629Z,4.07
2018-08-24T13:44:40.975Z,4.27
2018-08-24T13:45:44.273Z,5.13
2018-08-24T13:46:47.780Z,5.00
2018-08-24T13:49:03.398Z,5.73
2018-08-24T13:50:06.847Z,1.90
2018-08-24T13:51:11.195Z,2.47
2018-08-24T13:52:14.679Z,2.77
2018-08-24T13:53:18.122Z,3.20
2018-08-24T13:54:21.469Z,2.43
2018-08-24T13:55:24.789Z,2.77
2018-08-24T13:56:28.176Z,3.53
2018-08-24T13:57:31.495Z,3.60
2018-08-24T13:58:34.993Z,3.77
2018-08-24T13:59:38.715Z,5.20
2018-08-24T14:00:42.139Z,6.00
2018-08-24T14:01:45.580Z,4.83
2018-08-24T14:02:48.968Z,5.73
2018-08-24T14:03:52.334Z,3.10